KROW/ROW METAR and TAF weather

Enter ICAO airport designator
Station Type Date Time Source
KROW METAR 2021/09/24 05:51 UTC NOAA

KROW 240551Z AUTO 18007KT 10SM CLR 20/01 A3004 RMK AO2 SLP113 T02000011 10306 20200 51010


Station Type Date Time Source
KROW Decoded METAR 2021/09/24 05:51 UTC NOAA

ROSWELL INDUSTRIAL AIR CENTR, NM, United States (KROW) 33-18N 104-32W 1112M
Sep 24, 2021 - 01:51 AM EDT / 2021.09.24 0551 UTC
Wind: from the S (180 degrees) at 8 MPH (7 KT):0
Visibility: 10 mile(s):0
Sky conditions: clear
Temperature: 68.0 F (20.0 C)
Dew Point: 34.0 F (1.1 C)
Relative Humidity: 28%
Pressure (altimeter): 30.04 in. Hg (1017 hPa)
Pressure tendency: 0.03 inches (1.0 hPa) higher than three hours ago
ob: KROW 240551Z AUTO 18007KT 10SM CLR 20/01 A3004 RMK AO2 SLP113 T02000011 10306 20200 51010
cycle: 6

Station Type Date Time Source
KROW TAF 2021/09/24 06:42 UTC NOAA

TAF KROW 240539Z 2406/2506 17007KT P6SM BKN200
FM241400 16006KT P6SM SCT150
FM250000 19007KT P6SM SCT250

Example: see airport list